Time;durP1;ratioP1;P1;durP2;ratioP2;P2;SDS_P1;SDS_P2;PMS_P1;PMS_P2;Temp;Humidity;BMP_temperature;BMP_pressure;BME280_temperature;BME280_humidity;BME280_pressure;Samples;Min_cycle;Max_cycle;Signal;HPM_P1;HPM_P2
2022/12/13 00:01:31;;;;;;;50.60;21.65;;;-5.10;99.90;;;;;;4989741;28;20082;-79
2022/12/13 00:03:58;;;;;;;49.00;22.55;;;-5.10;99.90;;;;;;4974816;28;20042;-79
2022/12/13 00:06:24;;;;;;;50.00;23.25;;;-5.00;99.90;;;;;;4974154;28;20045;-80
2022/12/13 00:08:50;;;;;;;47.67;22.58;;;-5.10;99.90;;;;;;4974577;28;20486;-79
2022/12/13 00:11:16;;;;;;;52.60;22.25;;;-5.00;99.90;;;;;;4978384;28;20482;-79
2022/12/13 00:13:42;;;;;;;53.05;23.35;;;-5.00;99.90;;;;;;4973897;28;20084;-78
2022/12/13 00:16:10;;;;;;;51.33;21.38;;;-5.00;99.90;;;;;;4958807;28;20030;-78
2022/12/13 00:18:36;;;;;;;49.03;21.80;;;-5.00;99.90;;;;;;4973493;28;20092;-79
2022/12/13 00:21:13;;;;;;;53.45;22.70;;;-4.90;99.90;;;;;;4989177;28;20039;-79
2022/12/13 00:23:38;;;;;;;46.10;22.30;;;-4.90;99.90;;;;;;4991500;28;20038;-79
2022/12/13 00:26:05;;;;;;;47.20;21.92;;;-5.00;99.90;;;;;;4959584;28;20042;-80
2022/12/13 00:28:30;;;;;;;48.28;22.67;;;-5.10;99.90;;;;;;4973504;28;20533;-80
2022/12/13 00:30:59;;;;;;;49.42;21.42;;;-5.10;99.90;;;;;;4990473;28;20038;-80
2022/12/13 00:33:25;;;;;;;51.83;22.00;;;-5.10;99.90;;;;;;4970823;28;20397;-79
2022/12/13 00:35:51;;;;;;;49.63;22.67;;;-5.10;99.90;;;;;;4987672;28;20114;-78
2022/12/13 00:38:16;;;;;;;52.45;23.13;;;-5.10;99.90;;;;;;4957582;28;20030;-80
2022/12/13 00:40:42;;;;;;;44.25;20.92;;;-5.10;99.90;;;;;;4972575;28;20141;-79
2022/12/13 00:43:07;;;;;;;55.17;23.05;;;-5.20;99.90;;;;;;4989056;28;20049;-81
2022/12/13 00:45:33;;;;;;;50.15;23.50;;;-5.20;99.90;;;;;;4971596;28;20042;-80
2022/12/13 00:47:59;;;;;;;44.30;21.75;;;-5.20;99.90;;;;;;4993275;28;20030;-80
2022/12/13 00:50:24;;;;;;;39.70;20.45;;;-5.20;99.90;;;;;;4989764;28;20053;-81
2022/12/13 00:52:50;;;;;;;43.90;20.67;;;-5.20;99.90;;;;;;4974295;28;20487;-81
2022/12/13 00:55:15;;;;;;;49.53;22.48;;;-5.30;99.90;;;;;;4990453;28;20125;-80
2022/12/13 00:57:41;;;;;;;50.63;21.83;;;-5.30;99.90;;;;;;4978682;28;20050;-81
2022/12/13 01:00:09;;;;;;;44.17;22.05;;;-5.30;99.90;;;;;;4990791;28;20565;-81
2022/12/13 01:02:35;;;;;;;48.70;22.02;;;-5.40;99.90;;;;;;4957578;28;20065;-81
2022/12/13 01:05:00;;;;;;;55.10;23.15;;;-5.30;99.90;;;;;;4971236;28;20431;-80
2022/12/13 01:07:26;;;;;;;46.75;20.52;;;-5.30;99.90;;;;;;4959588;28;20106;-82
2022/12/13 01:09:51;;;;;;;49.10;21.88;;;-5.40;99.90;;;;;;4956940;28;20030;-79
2022/12/13 01:12:17;;;;;;;51.03;23.48;;;-5.40;99.90;;;;;;4976196;28;20050;-81
2022/12/13 01:14:42;;;;;;;43.35;21.67;;;-5.50;99.90;;;;;;4974453;28;20037;-81
2022/12/13 01:17:08;;;;;;;46.53;20.98;;;-5.50;99.90;;;;;;4992403;28;20027;-81
2022/12/13 01:19:33;;;;;;;47.80;21.10;;;-5.50;99.90;;;;;;4976469;28;20105;-80
2022/12/13 01:22:01;;;;;;;49.33;21.02;;;-5.60;99.90;;;;;;4990391;28;20061;-81
2022/12/13 01:24:27;;;;;;;47.63;21.08;;;-5.70;99.90;;;;;;4972775;28;20069;-81
2022/12/13 01:26:53;;;;;;;51.33;22.40;;;-5.60;99.90;;;;;;4988780;28;20466;-80
2022/12/13 01:29:19;;;;;;;50.05;20.48;;;-5.60;99.90;;;;;;4989096;28;20061;-82
2022/12/13 01:31:44;;;;;;;49.95;22.02;;;-5.60;99.90;;;;;;4990571;28;20133;-81
2022/12/13 01:34:10;;;;;;;40.83;19.25;;;-5.60;99.90;;;;;;4971820;28;20038;-81
2022/12/13 01:36:35;;;;;;;48.58;22.40;;;-5.60;99.90;;;;;;4974943;28;20030;-80
2022/12/13 01:39:02;;;;;;;43.15;20.52;;;-5.70;99.90;;;;;;4972361;28;20038;-81
2022/12/13 01:41:28;;;;;;;44.45;20.13;;;-5.70;99.90;;;;;;4970771;28;20718;-80
2022/12/13 01:43:56;;;;;;;47.88;21.23;;;-5.60;99.90;;;;;;4993914;28;20088;-82
2022/12/13 01:46:22;;;;;;;45.58;19.85;;;-5.70;99.90;;;;;;4971867;28;20038;-80
2022/12/13 01:49:01;;;;;;;45.97;20.35;;;-5.70;99.90;;;;;;4972807;28;20480;-81
2022/12/13 01:51:42;;;;;;;42.55;20.02;;;-5.80;99.90;;;;;;4972442;28;20085;-80
2022/12/13 01:54:09;;;;;;;47.45;20.55;;;-5.80;99.90;;;;;;4989018;28;20069;-81
2022/12/13 01:56:37;;;;;;;44.75;21.35;;;-5.90;99.90;;;;;;4958011;28;20036;-80
2022/12/13 01:59:04;;;;;;;46.00;20.75;;;-5.90;99.90;;;;;;4972980;28;20042;-82
2022/12/13 02:01:29;;;;;;;43.40;20.95;;;-5.80;99.90;;;;;;4970529;28;20049;-82
2022/12/13 02:03:55;;;;;;;42.35;19.58;;;-5.90;99.90;;;;;;4976943;28;20110;-81
2022/12/13 02:06:35;;;;;;;44.40;20.25;;;-5.90;99.90;;;;;;4989092;28;20064;-81
2022/12/13 02:09:01;;;;;;;43.15;21.30;;;-5.90;99.90;;;;;;4966300;28;20038;-80
2022/12/13 02:11:27;;;;;;;41.22;19.80;;;-5.90;99.90;;;;;;4956421;28;20034;-80
2022/12/13 02:13:52;;;;;;;45.83;20.02;;;-5.80;99.90;;;;;;4970202;28;20027;-81
2022/12/13 02:16:33;;;;;;;45.92;20.85;;;-5.80;99.90;;;;;;4970690;28;20093;-81
2022/12/13 02:19:35;;;;;;;39.70;18.30;;;-5.90;99.90;;;;;;4969497;28;20042;-82
2022/12/13 02:22:29;;;;;;;41.08;19.83;;;-5.90;99.90;;;;;;4988823;28;20133;-80
2022/12/13 02:25:02;;;;;;;43.20;19.02;;;-6.00;99.90;;;;;;4989824;28;20026;-81
2022/12/13 02:27:59;;;;;;;42.30;18.88;;;-6.00;99.90;;;;;;4990800;28;20038;-80
2022/12/13 02:30:40;;;;;;;43.67;19.83;;;-5.90;99.90;;;;;;4970933;28;20503;-80
2022/12/13 02:33:11;;;;;;;41.53;19.63;;;-6.00;99.90;;;;;;4971459;28;20547;-82
2022/12/13 02:35:55;;;;;;;44.58;19.65;;;-6.00;99.90;;;;;;4989141;28;20037;-82
2022/12/13 02:38:32;;;;;;;45.30;21.42;;;-6.00;99.90;;;;;;4987738;28;20018;-80
2022/12/13 02:41:07;;;;;;;43.00;18.45;;;-6.00;99.90;;;;;;4984013;28;20042;-81
2022/12/13 02:43:37;;;;;;;40.55;18.88;;;-5.90;99.90;;;;;;4985626;28;20042;-82
2022/12/13 02:46:03;;;;;;;41.97;20.20;;;-5.70;99.90;;;;;;4954271;28;20033;-82
2022/12/13 02:48:32;;;;;;;40.40;18.75;;;-5.80;99.90;;;;;;4955746;28;20042;-82
2022/12/13 02:50:58;;;;;;;43.17;18.88;;;-6.00;99.90;;;;;;4960866;28;20030;-83
2022/12/13 02:53:24;;;;;;;38.33;18.60;;;-6.10;99.90;;;;;;4975659;28;20080;-80
2022/12/13 02:55:49;;;;;;;41.75;19.05;;;-6.10;99.90;;;;;;4974757;28;20442;-80
2022/12/13 02:58:17;;;;;;;42.45;19.00;;;-6.20;99.90;;;;;;4992559;28;20447;-81
2022/12/13 03:01:01;;;;;;;41.80;18.50;;;-6.10;99.90;;;;;;4958691;28;20053;-81
2022/12/13 03:03:42;;;;;;;41.00;18.13;;;-6.20;99.90;;;;;;4964376;28;20038;-79
2022/12/13 03:06:30;;;;;;;41.72;18.85;;;-6.20;99.90;;;;;;4991722;28;20030;-81
2022/12/13 03:09:24;;;;;;;46.38;20.55;;;-6.20;99.90;;;;;;4989741;28;20069;-80
2022/12/13 03:15:27;;;;;;;39.10;17.73;;;-6.30;99.90;;;;;;4992273;28;20049;-81
2022/12/13 03:18:03;;;;;;;40.90;18.30;;;-6.30;99.90;;;;;;4992437;28;20038;-81
2022/12/13 03:20:29;;;;;;;42.92;18.45;;;-6.30;99.90;;;;;;4989792;28;20077;-81
2022/12/13 03:22:55;;;;;;;49.03;20.65;;;-6.30;99.90;;;;;;4979604;28;20034;-82
2022/12/13 03:25:21;;;;;;;38.47;18.95;;;-6.30;99.90;;;;;;4995532;28;20038;-81
2022/12/13 03:27:47;;;;;;;42.97;18.92;;;-6.30;99.90;;;;;;4974213;28;20027;-81
2022/12/13 03:30:12;;;;;;;43.67;19.33;;;-6.30;99.90;;;;;;4975056;28;20038;-81
2022/12/13 03:32:38;;;;;;;37.17;17.90;;;-6.40;99.90;;;;;;4974078;28;20050;-81
2022/12/13 03:35:04;;;;;;;45.75;19.70;;;-6.40;99.90;;;;;;4960127;28;20089;-82
2022/12/13 03:37:29;;;;;;;40.03;18.65;;;-6.40;99.90;;;;;;4976785;28;20097;-81
2022/12/13 03:39:55;;;;;;;38.47;17.70;;;-6.40;99.90;;;;;;4974122;28;20442;-81
2022/12/13 03:42:21;;;;;;;42.45;18.75;;;-6.40;99.90;;;;;;4972742;28;20097;-81
2022/12/13 03:44:46;;;;;;;42.85;18.95;;;-6.40;99.90;;;;;;4973310;28;20474;-81
2022/12/13 03:47:16;;;;;;;38.50;16.08;;;-6.40;99.90;;;;;;4956538;28;20031;-82
2022/12/13 03:49:41;;;;;;;38.42;19.80;;;-6.40;99.90;;;;;;4975408;28;20517;-82
2022/12/13 03:52:07;;;;;;;41.25;17.95;;;-6.40;99.90;;;;;;4973696;28;20023;-81
2022/12/13 03:54:32;;;;;;;45.97;18.98;;;-6.40;99.90;;;;;;4975717;28;20359;-82
2022/12/13 03:56:58;;;;;;;45.20;19.13;;;-6.50;99.90;;;;;;4996273;28;20046;-79
2022/12/13 03:59:24;;;;;;;43.30;18.42;;;-6.40;99.90;;;;;;4991012;28;20034;-79
2022/12/13 04:01:49;;;;;;;43.03;18.23;;;-6.40;99.90;;;;;;4989516;28;20034;-79
2022/12/13 04:04:15;;;;;;;42.72;17.80;;;-6.40;99.90;;;;;;4956795;28;20102;-79
2022/12/13 04:06:40;;;;;;;37.65;17.15;;;-6.50;99.90;;;;;;4956093;28;20061;-79
2022/12/13 04:09:08;;;;;;;37.75;16.58;;;-6.50;99.90;;;;;;4972166;28;20034;-78
2022/12/13 04:14:18;;;;;;;45.00;18.55;;;-6.50;99.90;;;;;;4988474;28;20096;-78
2022/12/13 04:16:44;;;;;;;40.72;16.25;;;-6.50;99.90;;;;;;4986973;28;20026;-79
2022/12/13 04:19:09;;;;;;;35.67;16.90;;;-6.50;99.90;;;;;;4987804;28;20518;-78
2022/12/13 04:21:35;;;;;;;41.50;18.58;;;-6.50;99.90;;;;;;4987862;28;20038;-79
2022/12/13 04:24:00;;;;;;;42.53;17.17;;;-6.60;99.90;;;;;;4960060;28;20031;-78
2022/12/13 04:26:26;;;;;;;39.28;18.48;;;-6.50;99.90;;;;;;4971902;28;20048;-79
2022/12/13 04:28:51;;;;;;;42.20;18.30;;;-6.60;99.90;;;;;;4972665;28;20473;-79
2022/12/13 04:31:17;;;;;;;38.88;16.95;;;-6.50;99.90;;;;;;4975579;28;20491;-79
2022/12/13 04:33:44;;;;;;;41.17;18.58;;;-6.60;99.90;;;;;;4989826;28;20110;-79
2022/12/13 04:36:09;;;;;;;39.30;18.25;;;-6.60;99.90;;;;;;4961631;28;20063;-79
2022/12/13 04:38:35;;;;;;;39.90;19.42;;;-6.60;99.90;;;;;;4989766;28;20459;-78
2022/12/13 04:41:07;;;;;;;40.90;17.80;;;-6.70;99.90;;;;;;4986706;28;20681;-79
2022/12/13 04:43:33;;;;;;;38.95;17.55;;;-6.70;99.90;;;;;;4968627;28;20038;-78
2022/12/13 04:45:58;;;;;;;41.78;18.45;;;-6.80;99.90;;;;;;4953328;28;20041;-78
2022/12/13 04:48:24;;;;;;;37.30;17.20;;;-6.70;99.90;;;;;;4985195;28;20042;-79
2022/12/13 04:50:50;;;;;;;40.25;17.40;;;-6.80;99.90;;;;;;4970197;28;20030;-78
2022/12/13 04:53:15;;;;;;;40.55;18.42;;;-6.80;99.90;;;;;;4954275;28;20517;-79
2022/12/13 04:55:41;;;;;;;39.15;17.67;;;-6.80;99.90;;;;;;4969654;28;20088;-78
2022/12/13 04:58:06;;;;;;;35.28;16.00;;;-6.70;99.90;;;;;;4991618;28;20027;-78
2022/12/13 05:00:32;;;;;;;36.90;17.52;;;-6.80;99.90;;;;;;4967541;28;20108;-79
2022/12/13 05:03:00;;;;;;;41.83;18.52;;;-6.80;99.90;;;;;;4989096;28;20058;-77
2022/12/13 05:05:26;;;;;;;36.63;17.65;;;-6.80;99.90;;;;;;4951618;28;20046;-77
2022/12/13 05:07:51;;;;;;;36.42;16.38;;;-6.80;99.90;;;;;;4957039;28;20042;-78
2022/12/13 05:10:17;;;;;;;41.25;17.58;;;-6.80;99.90;;;;;;4969910;28;20038;-78
2022/12/13 05:12:42;;;;;;;42.70;18.08;;;-6.70;99.90;;;;;;4987014;28;20061;-78
2022/12/13 05:15:08;;;;;;;36.88;17.33;;;-6.70;99.90;;;;;;4985115;28;20050;-77
2022/12/13 05:17:35;;;;;;;39.53;17.30;;;-6.70;99.90;;;;;;4983260;28;20070;-77
2022/12/13 05:20:00;;;;;;;36.83;17.00;;;-6.80;99.90;;;;;;4954173;28;20037;-77
2022/12/13 05:22:26;;;;;;;33.15;17.25;;;-6.80;99.90;;;;;;4986232;28;20363;-77
2022/12/13 05:24:51;;;;;;;37.47;17.13;;;-6.80;99.90;;;;;;4969417;28;20034;-77
2022/12/13 05:27:17;;;;;;;36.92;16.48;;;-6.80;99.90;;;;;;4987814;28;20110;-77
2022/12/13 05:29:42;;;;;;;36.95;16.48;;;-6.80;99.90;;;;;;4951341;28;20033;-77
2022/12/13 05:32:08;;;;;;;38.03;18.38;;;-6.80;99.90;;;;;;4965716;28;20832;-77
2022/12/13 05:34:34;;;;;;;37.67;16.88;;;-6.90;99.90;;;;;;4968104;28;20018;-77
2022/12/13 05:36:59;;;;;;;34.80;16.10;;;-6.80;99.90;;;;;;4987156;28;20073;-78
2022/12/13 05:39:25;;;;;;;37.70;16.77;;;-6.90;99.90;;;;;;4986488;28;20030;-77
2022/12/13 05:41:50;;;;;;;35.42;16.60;;;-6.90;99.90;;;;;;4988179;28;20045;-77
2022/12/13 05:44:16;;;;;;;40.28;17.65;;;-6.90;99.90;;;;;;4968485;28;20030;-77
2022/12/13 05:46:42;;;;;;;35.15;17.00;;;-6.90;99.90;;;;;;4982685;28;22356;-77
2022/12/13 05:49:07;;;;;;;37.97;16.92;;;-7.00;99.90;;;;;;4978625;28;21587;-77
2022/12/13 05:51:33;;;;;;;38.38;17.73;;;-7.00;99.90;;;;;;4953194;28;20034;-77
2022/12/13 05:53:58;;;;;;;36.78;16.58;;;-7.00;99.90;;;;;;4952593;28;20506;-77
2022/12/13 05:56:24;;;;;;;40.13;16.05;;;-7.10;99.90;;;;;;4952128;28;20447;-77
2022/12/13 05:58:53;;;;;;;36.35;16.58;;;-7.00;99.90;;;;;;4987839;28;20026;-77
2022/12/13 06:01:18;;;;;;;36.72;16.55;;;-7.10;99.90;;;;;;4967259;28;20077;-77
2022/12/13 06:03:44;;;;;;;38.08;16.23;;;-7.10;99.90;;;;;;4967811;28;20063;-77
2022/12/13 06:06:10;;;;;;;35.95;15.95;;;-7.20;99.90;;;;;;4953488;28;20038;-77
2022/12/13 06:08:36;;;;;;;37.97;15.93;;;-7.10;99.90;;;;;;4970367;28;20527;-76
2022/12/13 06:11:04;;;;;;;37.38;16.42;;;-6.90;99.90;;;;;;4975904;28;20046;-76
2022/12/13 06:13:30;;;;;;;32.83;16.10;;;-7.00;99.90;;;;;;4990850;28;20055;-77
2022/12/13 06:16:00;;;;;;;35.30;15.30;;;-7.00;99.90;;;;;;4991982;28;20372;-77
2022/12/13 06:18:26;;;;;;;40.45;15.90;;;-7.20;99.90;;;;;;4973595;28;20038;-78
2022/12/13 06:20:56;;;;;;;36.58;16.02;;;-7.20;99.90;;;;;;4972629;28;20504;-77
2022/12/13 06:23:22;;;;;;;41.38;17.30;;;-7.20;99.90;;;;;;4974598;28;20039;-77
2022/12/13 06:25:47;;;;;;;42.38;17.70;;;-7.20;99.90;;;;;;4958903;28;20035;-77
2022/12/13 06:28:13;;;;;;;35.83;15.98;;;-7.10;99.90;;;;;;4984369;28;20038;-77
2022/12/13 06:30:38;;;;;;;38.75;18.25;;;-7.00;99.90;;;;;;4987885;28;20418;-78
2022/12/13 06:33:04;;;;;;;37.25;16.65;;;-7.10;99.90;;;;;;4960354;28;20109;-77
2022/12/13 06:35:29;;;;;;;33.97;16.13;;;-7.10;99.90;;;;;;4989211;28;20031;-78
2022/12/13 06:37:55;;;;;;;36.38;16.50;;;-7.30;99.90;;;;;;4976264;28;20037;-76
2022/12/13 06:40:21;;;;;;;34.80;16.35;;;-7.40;99.90;;;;;;4926175;28;20050;-77
2022/12/13 06:42:46;;;;;;;33.28;16.27;;;-7.50;99.90;;;;;;4989528;28;20635;-76
2022/12/13 06:45:12;;;;;;;38.42;17.67;;;-7.50;99.90;;;;;;4959344;28;20076;-77
2022/12/13 06:47:37;;;;;;;37.05;17.00;;;-7.50;99.90;;;;;;4974667;28;20077;-76
2022/12/13 06:50:04;;;;;;;33.90;16.17;;;-7.50;99.90;;;;;;4974241;28;20121;-78
2022/12/13 06:52:29;;;;;;;35.20;16.00;;;-7.40;99.90;;;;;;4988890;28;20030;-76
2022/12/13 06:54:55;;;;;;;39.97;17.55;;;-7.40;99.90;;;;;;4992095;28;20482;-77
2022/12/13 06:57:21;;;;;;;35.10;15.32;;;-7.40;99.90;;;;;;4959817;28;20034;-76
2022/12/13 06:59:52;;;;;;;38.22;18.17;;;-7.50;99.90;;;;;;4980291;28;20034;-77
2022/12/13 07:02:18;;;;;;;38.58;16.77;;;-7.50;99.90;;;;;;4956855;28;20038;-77
2022/12/13 07:04:44;;;;;;;40.00;16.92;;;-7.60;99.90;;;;;;4933104;28;20691;-77
2022/12/13 07:07:09;;;;;;;36.75;16.63;;;-7.60;99.90;;;;;;4986142;28;20473;-75
2022/12/13 07:09:35;;;;;;;39.13;16.55;;;-7.50;99.90;;;;;;4953762;28;20030;-76
2022/12/13 07:12:00;;;;;;;33.40;16.63;;;-7.60;99.90;;;;;;4982970;28;20392;-76
2022/12/13 07:14:26;;;;;;;33.40;15.93;;;-7.60;99.90;;;;;;4988408;28;20539;-77
2022/12/13 07:16:52;;;;;;;37.15;15.50;;;-7.60;99.90;;;;;;4985409;28;20410;-76
2022/12/13 07:19:17;;;;;;;36.08;16.15;;;-7.60;99.90;;;;;;4986232;28;20406;-76
2022/12/13 07:21:43;;;;;;;41.60;17.15;;;-7.70;99.90;;;;;;4970149;28;20383;-76
2022/12/13 07:24:08;;;;;;;39.35;15.70;;;-7.70;99.90;;;;;;4988138;28;20038;-76
2022/12/13 07:26:34;;;;;;;40.30;15.80;;;-7.70;99.90;;;;;;4971588;28;20034;-77
2022/12/13 07:28:59;;;;;;;34.83;15.77;;;-7.70;99.90;;;;;;4935624;28;20026;-76
2022/12/13 07:31:25;;;;;;;39.90;16.92;;;-7.80;99.90;;;;;;4953830;28;20165;-76
2022/12/13 07:33:51;;;;;;;35.63;16.88;;;-7.70;99.90;;;;;;4984236;28;20122;-75
2022/12/13 07:36:21;;;;;;;36.35;17.35;;;-7.70;99.90;;;;;;4986428;28;20030;-76
2022/12/13 07:38:51;;;;;;;34.58;16.48;;;-7.70;99.90;;;;;;4958276;28;20026;-76
2022/12/13 07:41:16;;;;;;;38.05;16.60;;;-7.70;99.90;;;;;;4970725;28;20092;-76
2022/12/13 07:43:42;;;;;;;43.05;16.55;;;-7.70;99.90;;;;;;4986042;28;20042;-76
2022/12/13 07:46:08;;;;;;;35.50;15.38;;;-7.60;99.90;;;;;;4985469;28;20044;-76
2022/12/13 07:48:34;;;;;;;32.25;15.95;;;-7.70;99.90;;;;;;4986490;28;20121;-75
2022/12/13 07:51:04;;;;;;;40.25;17.23;;;-7.70;99.90;;;;;;4944924;28;20664;-76
2022/12/13 07:53:29;;;;;;;44.47;17.20;;;-7.70;99.90;;;;;;4942751;28;20034;-76
2022/12/13 07:55:55;;;;;;;40.83;15.77;;;-7.50;99.90;;;;;;4969068;28;20034;-76
2022/12/13 07:58:21;;;;;;;36.72;14.25;;;-7.50;99.90;;;;;;4970283;28;20405;-76
2022/12/13 08:00:47;;;;;;;40.42;16.10;;;-7.40;99.90;;;;;;4956657;28;20449;-77
2022/12/13 08:03:13;;;;;;;38.35;15.98;;;-7.50;99.90;;;;;;4985095;28;20069;-76
2022/12/13 08:05:38;;;;;;;38.38;16.20;;;-7.60;99.90;;;;;;4970348;28;20030;-76
2022/12/13 08:08:08;;;;;;;35.70;14.77;;;-7.50;99.90;;;;;;4953032;28;20026;-75
2022/12/13 08:10:33;;;;;;;36.08;16.35;;;-7.40;99.90;;;;;;4986263;28;20041;-75
2022/12/13 08:13:01;;;;;;;35.90;15.90;;;-7.30;99.90;;;;;;4984513;28;20052;-76
2022/12/13 08:15:27;;;;;;;36.67;17.20;;;-7.20;99.90;;;;;;4953039;28;20052;-75
2022/12/13 08:17:54;;;;;;;39.50;17.45;;;-7.30;99.90;;;;;;4963785;28;20065;-75
2022/12/13 08:20:20;;;;;;;46.00;18.60;;;-7.30;99.90;;;;;;4972999;28;20686;-75
2022/12/13 08:22:45;;;;;;;46.20;18.25;;;-7.20;99.90;;;;;;4952435;28;20123;-76
2022/12/13 08:25:11;;;;;;;32.03;16.25;;;-7.00;99.90;;;;;;4953018;28;20018;-76
2022/12/13 08:27:38;;;;;;;36.63;16.75;;;-6.80;99.90;;;;;;4969850;28;20035;-75
2022/12/13 08:30:04;;;;;;;40.38;18.48;;;-6.80;99.90;;;;;;4986804;28;20031;-76
2022/12/13 08:32:29;;;;;;;37.05;17.55;;;-6.60;99.90;;;;;;4963071;28;20037;-76
2022/12/13 08:34:55;;;;;;;43.33;18.52;;;-6.90;99.90;;;;;;4936081;28;20019;-76
2022/12/13 08:37:20;;;;;;;38.83;19.17;;;-7.00;99.90;;;;;;4967893;28;20414;-75
2022/12/13 08:39:46;;;;;;;40.45;19.48;;;-6.90;99.90;;;;;;4985532;28;20026;-76
2022/12/13 08:42:15;;;;;;;39.75;18.48;;;-6.80;99.90;;;;;;4982249;28;20727;-76
2022/12/13 08:44:41;;;;;;;45.95;18.67;;;-6.50;99.90;;;;;;4968749;28;20039;-76
2022/12/13 08:47:07;;;;;;;46.30;19.65;;;-6.30;99.90;;;;;;4968533;28;20045;-77
2022/12/13 08:49:32;;;;;;;37.42;17.88;;;-6.10;99.90;;;;;;4951692;28;20045;-75
2022/12/13 08:51:58;;;;;;;35.13;16.98;;;-6.10;99.90;;;;;;4969415;28;20482;-75
2022/12/13 08:54:24;;;;;;;39.03;19.48;;;-5.70;99.90;;;;;;4969154;28;20457;-76
2022/12/13 08:56:50;;;;;;;41.22;19.20;;;-5.70;99.90;;;;;;4969609;28;20073;-76
2022/12/13 08:59:15;;;;;;;41.53;18.08;;;-5.60;99.90;;;;;;4969856;28;20467;-76
2022/12/13 09:01:41;;;;;;;38.85;17.95;;;-5.30;99.90;;;;;;4954635;28;20113;-77
2022/12/13 09:04:07;;;;;;;38.17;18.15;;;-5.10;99.90;;;;;;4969943;28;20038;-76
2022/12/13 09:06:32;;;;;;;31.35;13.38;;;-5.10;99.90;;;;;;4955250;28;20537;-76
2022/12/13 09:08:58;;;;;;;35.72;15.15;;;-4.80;99.90;;;;;;4953818;28;20030;-76
2022/12/13 09:11:24;;;;;;;37.22;14.68;;;-4.80;99.90;;;;;;4970256;28;20040;-76
2022/12/13 09:13:50;;;;;;;25.23;12.30;;;-4.80;99.90;;;;;;4969658;28;20057;-76
2022/12/13 09:16:18;;;;;;;25.67;12.10;;;-4.50;99.90;;;;;;4985936;28;20034;-76
2022/12/13 09:18:46;;;;;;;26.50;12.50;;;-4.50;99.90;;;;;;4968495;28;20042;-77
2022/12/13 09:21:14;;;;;;;34.92;13.40;;;-4.20;99.90;;;;;;4967402;28;20089;-76
2022/12/13 09:23:43;;;;;;;26.05;11.25;;;-4.10;99.90;;;;;;4970236;28;20038;-77
2022/12/13 09:26:12;;;;;;;22.90;11.15;;;-3.90;99.90;;;;;;4964621;28;20061;-76
2022/12/13 09:28:38;;;;;;;21.33;10.90;;;-3.80;99.90;;;;;;4975163;28;20445;-76
2022/12/13 09:31:15;;;;;;;24.02;11.10;;;-3.70;99.90;;;;;;4969290;28;20090;-77
2022/12/13 09:33:41;;;;;;;27.08;13.07;;;-3.50;99.90;;;;;;4968755;28;20105;-76
2022/12/13 09:36:10;;;;;;;25.20;13.32;;;-3.40;99.90;;;;;;4958995;28;20031;-76
2022/12/13 09:38:36;;;;;;;22.70;11.35;;;-3.20;99.90;;;;;;4968484;28;20089;-76
2022/12/13 09:41:18;;;;;;;25.15;11.40;;;-3.10;99.90;;;;;;4951782;28;20046;-76
2022/12/13 09:43:44;;;;;;;21.08;11.13;;;-3.10;99.90;;;;;;4986406;28;20524;-76
2022/12/13 09:46:29;;;;;;;22.85;12.43;;;-2.80;99.90;;;;;;4969759;28;20031;-76
2022/12/13 09:48:56;;;;;;;21.73;11.20;;;-2.70;99.90;;;;;;4968143;28;20209;-76
2022/12/13 09:51:22;;;;;;;20.80;10.00;;;-2.60;99.90;;;;;;4980507;28;20038;-76
2022/12/13 09:53:49;;;;;;;21.73;10.68;;;-2.50;99.90;;;;;;4984805;28;20085;-77
2022/12/13 09:56:20;;;;;;;27.88;14.50;;;-2.30;99.90;;;;;;4959780;28;20038;-76
2022/12/13 09:58:50;;;;;;;24.67;12.48;;;-2.30;99.90;;;;;;4950961;28;20027;-77
2022/12/13 10:01:15;;;;;;;23.95;12.57;;;-2.20;99.90;;;;;;4969829;28;20043;-77
2022/12/13 10:03:43;;;;;;;21.20;10.93;;;-2.00;99.90;;;;;;4969646;28;20054;-76
2022/12/13 10:06:19;;;;;;;20.88;10.18;;;-1.80;99.90;;;;;;4983078;28;20558;-76
2022/12/13 10:08:54;;;;;;;23.58;10.70;;;-1.80;99.90;;;;;;4968288;28;20042;-78
2022/12/13 10:11:21;;;;;;;21.20;10.30;;;-1.50;99.90;;;;;;4971639;28;20031;-77
2022/12/13 10:13:53;;;;;;;22.52;10.95;;;-1.40;99.90;;;;;;4984235;28;20027;-76
2022/12/13 10:16:28;;;;;;;20.35;10.98;;;-1.30;99.90;;;;;;4987563;28;20041;-77
2022/12/13 10:18:53;;;;;;;24.98;10.75;;;-1.20;99.90;;;;;;4987408;28;20022;-76
2022/12/13 10:21:36;;;;;;;24.02;10.60;;;-1.10;99.90;;;;;;4969142;28;20092;-77
2022/12/13 10:24:31;;;;;;;24.60;11.70;;;-1.00;99.90;;;;;;4982819;28;20084;-77
2022/12/13 10:26:59;;;;;;;22.25;10.50;;;-0.80;99.90;;;;;;4962423;28;20465;-75
2022/12/13 10:29:24;;;;;;;19.98;10.85;;;-0.70;99.90;;;;;;4960372;28;20030;-77
2022/12/13 10:31:51;;;;;;;27.80;13.93;;;-0.60;99.90;;;;;;4945621;28;20085;-77
2022/12/13 10:34:21;;;;;;;32.20;13.65;;;-0.50;99.90;;;;;;4983386;28;20054;-77
2022/12/13 10:36:46;;;;;;;32.30;14.15;;;-0.50;99.90;;;;;;4980464;28;20495;-77
2022/12/13 10:39:38;;;;;;;24.30;12.15;;;-0.40;99.90;;;;;;4964807;28;20038;-77
2022/12/13 10:42:15;;;;;;;23.90;12.57;;;-0.40;99.90;;;;;;4940069;28;20035;-76
2022/12/13 10:44:42;;;;;;;24.92;11.68;;;-0.30;99.90;;;;;;4966412;28;20034;-76
2022/12/13 10:47:16;;;;;;;20.33;10.70;;;-0.10;99.90;;;;;;4956880;28;20502;-78
2022/12/13 10:49:56;;;;;;;23.75;12.25;;;-0.10;99.90;;;;;;4949434;28;20062;-77
2022/12/13 10:52:48;;;;;;;24.85;12.60;;;0.00;99.90;;;;;;4984101;28;20104;-77
2022/12/13 10:55:32;;;;;;;23.23;11.82;;;0.10;99.90;;;;;;4962003;28;20026;-77
2022/12/13 10:58:02;;;;;;;18.60;10.32;;;0.10;99.90;;;;;;4947390;28;20054;-76
2022/12/13 11:00:43;;;;;;;24.67;13.25;;;0.20;99.90;;;;;;4950122;28;20038;-77
2022/12/13 11:03:11;;;;;;;18.38;10.35;;;0.10;99.90;;;;;;4962914;28;20031;-77
2022/12/13 11:05:39;;;;;;;22.83;11.80;;;0.20;99.90;;;;;;4965174;28;20039;-78
2022/12/13 11:08:12;;;;;;;19.20;10.30;;;0.30;99.90;;;;;;4971927;28;20038;-77
2022/12/13 11:10:38;;;;;;;21.13;11.38;;;0.40;99.90;;;;;;4970205;28;20038;-76
2022/12/13 11:13:05;;;;;;;25.48;12.43;;;0.50;99.90;;;;;;4951462;28;20034;-77
2022/12/13 11:15:32;;;;;;;18.92;9.90;;;0.60;99.90;;;;;;4971398;28;20053;-77
2022/12/13 11:18:01;;;;;;;16.75;9.90;;;0.50;99.90;;;;;;4956104;28;20034;-77
2022/12/13 11:20:34;;;;;;;20.80;9.68;;;0.60;99.90;;;;;;4955951;28;20491;-77
2022/12/13 11:23:06;;;;;;;29.95;15.93;;;0.70;99.90;;;;;;4987128;28;20026;-77
2022/12/13 11:25:40;;;;;;;23.75;12.48;;;0.60;99.90;;;;;;4988251;28;20026;-77
2022/12/13 11:28:34;;;;;;;23.25;11.60;;;0.60;99.90;;;;;;4975340;28;20034;-78
2022/12/13 11:31:27;;;;;;;24.23;13.15;;;0.80;99.90;;;;;;4965024;28;20031;-77
2022/12/13 11:33:58;;;;;;;32.85;15.15;;;0.90;99.90;;;;;;4984869;28;20486;-78
2022/12/13 11:36:49;;;;;;;22.33;10.85;;;1.00;99.90;;;;;;4985733;28;20529;-78
2022/12/13 11:39:31;;;;;;;30.85;14.05;;;1.10;99.90;;;;;;4967549;28;20076;-78
2022/12/13 11:42:18;;;;;;;19.98;11.50;;;1.10;99.90;;;;;;4947990;28;20521;-78
2022/12/13 11:45:14;;;;;;;24.60;13.25;;;1.10;99.90;;;;;;4984748;28;20035;-78
2022/12/13 11:48:11;;;;;;;32.75;16.23;;;1.10;99.90;;;;;;4968357;28;20483;-78
2022/12/13 11:50:39;;;;;;;27.92;15.20;;;0.90;99.90;;;;;;4978521;28;20058;-78
2022/12/13 11:53:17;;;;;;;31.95;16.02;;;1.10;99.90;;;;;;4969351;28;20026;-77
2022/12/13 11:56:10;;;;;;;28.70;14.93;;;0.80;99.90;;;;;;4982917;28;20511;-78
2022/12/13 11:58:57;;;;;;;26.52;13.57;;;0.90;99.90;;;;;;4953539;28;20088;-77
2022/12/13 12:01:38;;;;;;;23.08;12.60;;;0.80;99.90;;;;;;4951977;28;20042;-78
2022/12/13 12:04:09;;;;;;;28.75;15.40;;;1.10;99.90;;;;;;4960334;28;20030;-78
2022/12/13 12:06:42;;;;;;;26.95;14.52;;;1.40;99.90;;;;;;4967604;28;20053;-77
2022/12/13 12:09:15;;;;;;;24.92;13.88;;;1.10;99.90;;;;;;4933846;28;20502;-78
2022/12/13 12:11:52;;;;;;;25.00;13.43;;;1.20;99.90;;;;;;4932941;28;20038;-77
2022/12/13 12:14:23;;;;;;;23.00;12.05;;;1.30;99.90;;;;;;4984505;28;20376;-78
2022/12/13 12:16:52;;;;;;;23.02;12.85;;;1.50;99.90;;;;;;4986526;28;20438;-78
2022/12/13 12:19:21;;;;;;;23.90;13.15;;;1.40;99.90;;;;;;4982985;28;20041;-79
2022/12/13 12:22:08;;;;;;;19.58;11.95;;;1.10;99.90;;;;;;4985568;28;20030;-78
2022/12/13 12:24:56;;;;;;;22.63;11.75;;;1.60;99.90;;;;;;4956813;28;20030;-79
2022/12/13 12:27:37;;;;;;;22.63;12.52;;;1.90;99.90;;;;;;4969432;28;20069;-78
2022/12/13 12:30:29;;;;;;;25.52;12.18;;;2.10;99.90;;;;;;4981200;28;20034;-79
2022/12/13 12:33:05;;;;;;;27.17;13.82;;;2.20;99.90;;;;;;4966259;28;20513;-79
2022/12/13 12:35:34;;;;;;;;;;;1.60;99.90;;;;;;4986872;28;20038;-79
2022/12/13 12:38:10;;;;;;;25.08;12.43;;;1.50;99.90;;;;;;4971053;28;19910;-78
2022/12/13 12:40:54;;;;;;;22.88;13.07;;;2.10;99.90;;;;;;4986350;28;20593;-78
2022/12/13 12:43:40;;;;;;;25.40;13.38;;;2.10;99.90;;;;;;4985220;28;20528;-79
2022/12/13 12:46:16;;;;;;;;;;;1.60;99.90;;;;;;4970064;28;20527;-78